Time;durP1;ratioP1;P1;durP2;ratioP2;P2;SDS_P1;SDS_P2;PMS_P1;PMS_P2;Temp;Humidity;BMP_temperature;BMP_pressure;BME280_temperature;BME280_humidity;BME280_pressure;Samples;Min_cycle;Max_cycle;Signal;HPM_P1;HPM_P2
2022/03/18 04:01:04;;;;;;;35.53;28.50;;;8.00;99.90;;;;;;5583296;23;20728;-74
2022/03/18 04:03:29;;;;;;;38.73;28.17;;;8.00;99.90;;;;;;4937292;29;20650;-74
2022/03/18 04:05:55;;;;;;;38.30;25.50;;;8.10;99.90;;;;;;4936056;29;20273;-74
2022/03/18 04:08:21;;;;;;;40.40;26.30;;;8.00;99.90;;;;;;4936905;29;20209;-74
2022/03/18 04:10:47;;;;;;;36.60;26.30;;;8.00;99.90;;;;;;4936989;29;20588;-74
2022/03/18 04:13:12;;;;;;;35.10;25.80;;;8.00;99.90;;;;;;4937140;29;20193;-74
2022/03/18 04:15:38;;;;;;;32.83;25.77;;;8.00;99.90;;;;;;4937144;29;20190;-74
2022/03/18 04:18:04;;;;;;;35.27;24.60;;;8.00;99.90;;;;;;4935676;29;20674;-74
2022/03/18 04:20:32;;;;;;;37.13;23.93;;;8.00;99.90;;;;;;4937283;29;20206;-74
2022/03/18 04:22:58;;;;;;;33.87;25.17;;;8.00;99.90;;;;;;4937125;29;20214;-74
2022/03/18 04:25:24;;;;;;;36.90;26.70;;;8.00;99.90;;;;;;4937330;29;20175;-75
2022/03/18 04:27:50;;;;;;;33.53;25.33;;;8.00;99.90;;;;;;4935085;29;20248;-74
2022/03/18 04:30:16;;;;;;;37.57;24.73;;;8.00;99.90;;;;;;4936785;29;20243;-74
2022/03/18 04:32:42;;;;;;;42.10;25.97;;;7.90;99.90;;;;;;4936954;29;20186;-74
2022/03/18 04:35:09;;;;;;;40.10;28.27;;;7.90;99.90;;;;;;4936914;29;20672;-74
2022/03/18 04:37:37;;;;;;;35.80;28.77;;;7.90;99.90;;;;;;4936028;29;20279;-74
2022/03/18 04:40:04;;;;;;;36.80;28.73;;;7.90;99.90;;;;;;4936901;29;20188;-74
2022/03/18 04:42:30;;;;;;;37.77;28.13;;;8.00;99.90;;;;;;4936759;29;20575;-74
2022/03/18 04:44:56;;;;;;;38.67;28.03;;;8.00;99.90;;;;;;4936701;29;20183;-74
2022/03/18 04:47:22;;;;;;;38.50;27.77;;;8.00;99.90;;;;;;4934943;29;20217;-75
2022/03/18 04:49:48;;;;;;;34.83;27.20;;;8.00;99.90;;;;;;4936979;29;20174;-74
2022/03/18 04:52:14;;;;;;;36.97;28.57;;;7.90;99.90;;;;;;4936456;29;20206;-74
2022/03/18 04:54:39;;;;;;;36.80;27.10;;;7.90;99.90;;;;;;4936404;29;20717;-75
2022/03/18 04:57:20;;;;;;;40.63;28.00;;;7.90;99.90;;;;;;4937553;29;20183;-74
2022/03/18 04:59:47;;;;;;;39.43;27.43;;;7.90;99.90;;;;;;4935941;29;20275;-74
2022/03/18 05:02:14;;;;;;;36.90;25.60;;;7.90;99.90;;;;;;4936370;29;20268;-74
2022/03/18 05:04:44;;;;;;;41.13;31.47;;;7.90;99.90;;;;;;4936398;29;20186;-74
2022/03/18 05:07:11;;;;;;;38.23;30.63;;;7.90;99.90;;;;;;4934017;29;20187;-74
2022/03/18 05:09:39;;;;;;;38.00;28.23;;;7.90;99.90;;;;;;4936214;29;20643;-74
2022/03/18 05:12:10;;;;;;;38.40;27.10;;;7.90;99.90;;;;;;4936179;29;20217;-74
2022/03/18 05:14:37;;;;;;;36.60;23.80;;;7.90;99.90;;;;;;4936246;29;20190;-74
2022/03/18 05:17:05;;;;;;;37.30;25.17;;;7.90;99.90;;;;;;4935558;29;20186;-74
2022/03/18 05:19:30;;;;;;;41.80;28.40;;;7.90;99.90;;;;;;4935043;29;20214;-74
2022/03/18 05:21:57;;;;;;;36.50;26.40;;;7.90;99.90;;;;;;4937870;29;20203;-74
2022/03/18 05:24:25;;;;;;;42.63;28.57;;;7.90;99.90;;;;;;4935527;29;20191;-75
2022/03/18 05:26:52;;;;;;;38.47;29.30;;;7.90;99.90;;;;;;4939179;29;20220;-69
2022/03/18 05:29:18;;;;;;;38.27;27.10;;;7.90;99.90;;;;;;4921431;29;20726;-69
2022/03/18 05:31:46;;;;;;;35.50;26.57;;;7.90;99.90;;;;;;4923410;29;20325;-69
2022/03/18 05:34:13;;;;;;;38.07;27.43;;;8.00;99.90;;;;;;4917998;29;20195;-70
2022/03/18 05:36:40;;;;;;;37.27;26.47;;;8.00;99.90;;;;;;4938474;29;20186;-73
2022/03/18 05:39:06;;;;;;;48.33;38.03;;;8.10;99.90;;;;;;4940506;29;20218;-73
2022/03/18 05:41:32;;;;;;;48.93;44.23;;;8.00;99.90;;;;;;4926672;29;20283;-68
2022/03/18 05:43:58;;;;;;;48.30;43.13;;;8.10;99.90;;;;;;4914185;29;20226;-68
2022/03/18 05:46:24;;;;;;;47.57;42.67;;;8.00;99.90;;;;;;4928661;29;20183;-69
2022/03/18 05:48:50;;;;;;;52.50;46.90;;;8.00;99.90;;;;;;4935173;29;20186;-68
2022/03/18 05:51:17;;;;;;;53.80;48.23;;;8.00;99.90;;;;;;4934519;29;20202;-68
2022/03/18 05:53:42;;;;;;;47.43;42.50;;;8.10;99.90;;;;;;4934775;29;20193;-67
2022/03/18 05:58:54;;;;;;;45.83;40.23;;;8.10;99.90;;;;;;4930443;29;20217;-69
2022/03/18 06:01:20;;;;;;;41.70;37.27;;;8.10;99.90;;;;;;4934403;29;20593;-69
2022/03/18 06:03:48;;;;;;;43.53;37.50;;;8.00;99.90;;;;;;4935088;29;20186;-76
2022/03/18 06:06:14;;;;;;;42.77;34.10;;;8.10;99.90;;;;;;4935647;29;20269;-73
2022/03/18 06:14:09;;;;;;;40.50;30.07;;;8.10;99.90;;;;;;4934901;29;20218;-73
2022/03/18 06:16:36;;;;;;;43.53;34.23;;;8.10;99.90;;;;;;4934555;29;20623;-73
2022/03/18 06:19:03;;;;;;;43.67;31.53;;;8.10;99.90;;;;;;4933465;29;20252;-74
2022/03/18 06:21:29;;;;;;;39.53;28.80;;;8.10;99.90;;;;;;4934221;29;20202;-73
2022/03/18 06:23:55;;;;;;;37.80;28.87;;;8.10;99.90;;;;;;4932927;29;20249;-75
2022/03/18 06:26:22;;;;;;;41.80;30.57;;;8.10;99.90;;;;;;4914649;29;20575;-73
2022/03/18 06:28:48;;;;;;;36.33;25.87;;;8.20;99.90;;;;;;4932092;29;20187;-72
2022/03/18 06:31:14;;;;;;;39.87;26.97;;;8.20;99.90;;;;;;4932410;29;20229;-72
2022/03/18 06:33:44;;;;;;;38.17;27.20;;;8.20;99.90;;;;;;4934311;29;20222;-73
2022/03/18 06:36:11;;;;;;;38.00;27.37;;;8.20;99.90;;;;;;4933382;29;20186;-74
2022/03/18 06:38:37;;;;;;;43.97;29.07;;;8.20;99.90;;;;;;4934247;29;20237;-72
2022/03/18 06:41:03;;;;;;;39.63;28.57;;;8.20;99.90;;;;;;4935785;29;20202;-73
2022/03/18 06:43:28;;;;;;;37.37;27.17;;;8.20;99.90;;;;;;4933606;29;20333;-73
2022/03/18 06:45:55;;;;;;;43.63;29.87;;;8.10;99.90;;;;;;4935553;29;20242;-73
2022/03/18 06:48:21;;;;;;;41.87;28.80;;;8.20;99.90;;;;;;4934017;29;20182;-74
2022/03/18 06:50:47;;;;;;;45.80;29.50;;;8.20;99.90;;;;;;4933685;29;20644;-73
2022/03/18 06:53:12;;;;;;;45.90;28.03;;;8.30;99.90;;;;;;4934314;29;20672;-72
2022/03/18 06:55:38;;;;;;;46.40;28.40;;;8.30;99.90;;;;;;4933292;29;20606;-74
2022/03/18 06:58:04;;;;;;;43.83;29.57;;;8.30;99.90;;;;;;4932609;29;20580;-74
2022/03/18 07:00:30;;;;;;;46.67;27.17;;;8.30;99.90;;;;;;4927525;29;20250;-71
2022/03/18 07:02:55;;;;;;;43.67;29.17;;;8.30;99.90;;;;;;4929412;29;20715;-71
2022/03/18 07:05:21;;;;;;;42.87;28.23;;;8.30;99.90;;;;;;4924375;29;20289;-70
2022/03/18 07:07:48;;;;;;;47.10;28.97;;;8.40;99.90;;;;;;4926674;29;20178;-70
2022/03/18 07:10:14;;;;;;;44.37;30.87;;;8.50;99.90;;;;;;4932168;29;20307;-70
2022/03/18 07:12:40;;;;;;;44.07;29.17;;;8.60;99.90;;;;;;4915332;29;20206;-70
2022/03/18 07:15:07;;;;;;;43.60;31.47;;;8.70;99.90;;;;;;4915061;29;20197;-70
2022/03/18 07:20:18;;;;;;;44.50;32.50;;;8.80;99.90;;;;;;4933888;29;20263;-70
2022/03/18 07:22:44;;;;;;;46.20;31.47;;;8.80;99.90;;;;;;4932586;29;20185;-69
2022/03/18 07:25:10;;;;;;;51.50;33.77;;;8.80;99.90;;;;;;4934019;29;20233;-70
2022/03/18 07:27:36;;;;;;;41.57;26.43;;;8.90;99.90;;;;;;4933416;29;20754;-71
2022/03/18 07:30:06;;;;;;;43.03;26.97;;;8.90;99.90;;;;;;4932447;29;20185;-69
2022/03/18 07:32:32;;;;;;;49.63;29.60;;;8.90;99.90;;;;;;4933759;29;20209;-70
2022/03/18 07:34:58;;;;;;;46.23;27.63;;;8.80;99.90;;;;;;4933417;29;20570;-70
2022/03/18 07:37:26;;;;;;;42.13;27.60;;;8.80;99.90;;;;;;4928760;29;20175;-70
2022/03/18 07:39:52;;;;;;;41.67;27.83;;;8.90;99.90;;;;;;4932043;29;20214;-70
2022/03/18 07:42:18;;;;;;;39.87;25.97;;;9.00;99.90;;;;;;4930166;29;20201;-69
2022/03/18 07:44:44;;;;;;;43.30;26.97;;;9.00;99.90;;;;;;4933517;29;20185;-70
2022/03/18 07:47:10;;;;;;;46.87;29.33;;;9.00;99.90;;;;;;4933276;29;20549;-71
2022/03/18 07:49:36;;;;;;;37.97;23.17;;;9.00;99.90;;;;;;4933693;29;20557;-71
2022/03/18 07:52:02;;;;;;;41.70;27.13;;;9.10;99.90;;;;;;4933321;29;20253;-70
2022/03/18 07:54:28;;;;;;;45.47;29.03;;;9.00;99.90;;;;;;4936049;29;20221;-71
2022/03/18 07:56:54;;;;;;;45.97;30.93;;;9.10;99.90;;;;;;4942404;29;20183;-72
2022/03/18 07:59:19;;;;;;;46.97;31.33;;;9.20;99.90;;;;;;4934776;29;20216;-71
2022/03/18 08:01:45;;;;;;;45.53;32.97;;;9.40;99.90;;;;;;4933455;29;20214;-70
2022/03/18 08:04:13;;;;;;;47.63;34.80;;;9.60;99.90;;;;;;4933516;29;20178;-71
2022/03/18 08:06:39;;;;;;;43.63;30.37;;;9.70;99.90;;;;;;4932219;29;20186;-71
2022/03/18 08:09:05;;;;;;;42.10;29.10;;;9.80;99.90;;;;;;4931570;29;20183;-71
2022/03/18 08:11:32;;;;;;;46.13;31.43;;;9.70;99.90;;;;;;4933311;29;20206;-71
2022/03/18 08:13:58;;;;;;;43.20;28.23;;;9.60;99.90;;;;;;4933235;29;20197;-71
2022/03/18 08:16:26;;;;;;;46.73;27.33;;;9.60;99.90;;;;;;4933298;29;20186;-71
2022/03/18 08:18:54;;;;;;;36.50;25.93;;;9.70;99.90;;;;;;4932854;29;20223;-71
2022/03/18 08:21:20;;;;;;;45.53;29.60;;;9.50;99.90;;;;;;4932378;29;20270;-71
2022/03/18 08:23:46;;;;;;;44.67;30.73;;;9.40;99.90;;;;;;4933584;29;20186;-70
2022/03/18 08:26:12;;;;;;;43.80;30.33;;;9.40;99.90;;;;;;4932095;29;20197;-70
2022/03/18 08:28:38;;;;;;;44.87;28.50;;;9.50;99.90;;;;;;4930992;29;20191;-71
2022/03/18 08:31:04;;;;;;;42.30;29.00;;;9.70;99.90;;;;;;4933647;29;20724;-71
2022/03/18 08:33:31;;;;;;;41.70;28.30;;;9.90;99.90;;;;;;4932342;29;20671;-71
2022/03/18 08:35:57;;;;;;;39.73;27.87;;;9.90;99.90;;;;;;4928378;29;20188;-72
2022/03/18 08:38:22;;;;;;;42.30;29.53;;;9.90;99.90;;;;;;4922173;29;20305;-70
2022/03/18 08:40:48;;;;;;;40.43;29.40;;;9.90;99.90;;;;;;4929562;29;20297;-70
2022/03/18 08:43:14;;;;;;;43.63;28.47;;;10.10;99.90;;;;;;4934457;29;20637;-70
2022/03/18 08:45:40;;;;;;;40.43;32.23;;;10.20;99.90;;;;;;4931617;29;20189;-71
2022/03/18 08:48:07;;;;;;;41.23;32.23;;;10.30;99.90;;;;;;4917335;29;20779;-70
2022/03/18 08:50:33;;;;;;;44.57;38.60;;;10.30;99.90;;;;;;4931828;29;20202;-70
2022/03/18 08:52:58;;;;;;;29.27;26.10;;;10.60;99.90;;;;;;4935936;29;20186;-70
2022/03/18 08:55:25;;;;;;;42.17;37.17;;;10.50;99.90;;;;;;4936373;29;20611;-70
2022/03/18 08:57:51;;;;;;;41.30;35.60;;;10.50;99.90;;;;;;4936042;29;20236;-72
2022/03/18 09:00:18;;;;;;;33.10;27.27;;;10.60;99.90;;;;;;4934955;29;20230;-71
2022/03/18 09:02:46;;;;;;;39.67;27.80;;;10.50;99.90;;;;;;4936054;29;20182;-72
2022/03/18 09:05:13;;;;;;;40.40;30.63;;;10.40;99.90;;;;;;4934953;29;20190;-71
2022/03/18 09:07:40;;;;;;;42.60;32.73;;;10.60;99.90;;;;;;4935048;29;20289;-69
2022/03/18 09:10:07;;;;;;;35.07;24.47;;;10.80;99.90;;;;;;4935371;29;20718;-69
2022/03/18 09:12:33;;;;;;;36.50;25.93;;;10.90;99.90;;;;;;4936128;29;20206;-69
2022/03/18 09:15:02;;;;;;;32.90;24.33;;;11.00;99.90;;;;;;4935715;29;20174;-70
2022/03/18 09:17:28;;;;;;;38.53;26.03;;;11.30;99.90;;;;;;4935193;29;20187;-70
2022/03/18 09:19:54;;;;;;;35.73;26.87;;;11.40;99.90;;;;;;4935044;29;20213;-72
2022/03/18 09:22:21;;;;;;;34.03;25.50;;;11.10;99.90;;;;;;4935436;29;20206;-70
2022/03/18 09:24:47;;;;;;;23.93;17.93;;;11.20;99.90;;;;;;4935955;29;20278;-71
2022/03/18 09:27:17;;;;;;;32.93;27.77;;;11.20;99.90;;;;;;4934325;29;20186;-71
2022/03/18 09:29:43;;;;;;;34.33;27.77;;;11.10;99.90;;;;;;4935329;29;20525;-71
2022/03/18 09:32:09;;;;;;;38.07;31.53;;;11.10;99.90;;;;;;4934504;29;20691;-71
2022/03/18 09:34:35;;;;;;;33.77;28.40;;;11.40;99.90;;;;;;4935125;29;20183;-70
2022/03/18 09:37:02;;;;;;;25.77;16.83;;;11.80;99.90;;;;;;4935128;29;20268;-70
2022/03/18 09:39:27;;;;;;;33.30;22.07;;;11.70;99.90;;;;;;4935140;29;20206;-70
2022/03/18 09:41:54;;;;;;;31.43;20.53;;;11.60;99.90;;;;;;4934173;29;20338;-70
2022/03/18 09:44:21;;;;;;;32.53;22.47;;;11.40;99.90;;;;;;4935152;29;20178;-69
2022/03/18 09:46:48;;;;;;;28.50;22.47;;;11.40;99.90;;;;;;4934929;29;20186;-71
2022/03/18 09:49:17;;;;;;;30.30;20.67;;;11.20;99.90;;;;;;4933671;29;20178;-71
2022/03/18 09:51:43;;;;;;;33.63;23.97;;;11.20;99.90;;;;;;4934882;29;20277;-72
2022/03/18 09:54:10;;;;;;;30.47;20.17;;;11.20;99.90;;;;;;4933013;29;20210;-71
2022/03/18 09:56:45;;;;;;;33.67;22.23;;;11.40;99.90;;;;;;4935179;29;20234;-72
2022/03/18 09:59:11;;;;;;;33.07;26.13;;;11.30;99.90;;;;;;4934710;29;20304;-71
2022/03/18 10:01:37;;;;;;;39.23;34.93;;;11.50;99.90;;;;;;4934995;29;20310;-71
2022/03/18 10:04:06;;;;;;;32.33;24.30;;;11.70;99.90;;;;;;4933695;29;20246;-70
2022/03/18 10:06:34;;;;;;;34.50;24.13;;;11.80;99.90;;;;;;4934814;29;20179;-72
2022/03/18 10:09:00;;;;;;;36.13;25.43;;;12.00;99.90;;;;;;4933044;29;20624;-73
2022/03/18 10:11:30;;;;;;;34.13;24.67;;;11.90;99.90;;;;;;4935071;29;20209;-72
2022/03/18 10:14:08;;;;;;;32.47;23.33;;;11.80;99.90;;;;;;4941355;29;20187;-73
2022/03/18 10:16:48;;;;;;;32.90;23.70;;;11.70;99.90;;;;;;4980007;23;20349;-69
2022/03/18 10:19:18;;;;;;;34.57;22.50;;;11.80;99.90;;;;;;4971587;28;20213;-68
2022/03/18 10:21:50;;;;;;;29.70;22.30;;;12.00;99.90;;;;;;4971260;28;20185;-68
2022/03/18 10:24:38;;;;;;;31.07;22.07;;;12.30;99.90;;;;;;4971896;28;20188;-69
2022/03/18 10:27:20;;;;;;;28.43;21.93;;;12.20;99.90;;;;;;4946325;28;20585;-69
2022/03/18 10:30:20;;;;;;;33.70;21.40;;;12.50;99.90;;;;;;4934367;29;20201;-69
2022/03/18 10:33:06;;;;;;;28.80;21.50;;;12.90;99.90;;;;;;4934658;29;20220;-69
2022/03/18 10:38:57;;;;;;;26.07;19.13;;;13.80;99.90;;;;;;4934234;29;20712;-69
2022/03/18 10:41:48;;;;;;;34.67;22.37;;;13.70;99.90;;;;;;4935258;29;20201;-69
2022/03/18 10:44:16;;;;;;;30.80;21.80;;;13.80;99.90;;;;;;4935042;29;20201;-69
2022/03/18 10:46:42;;;;;;;32.20;22.13;;;14.50;99.90;;;;;;4938906;28;20734;-70
2022/03/18 10:49:07;;;;;;;24.23;15.60;;;14.50;99.90;;;;;;4952834;29;20531;-69
2022/03/18 10:51:34;;;;;;;29.37;22.73;;;14.20;99.90;;;;;;4953200;29;20238;-69
2022/03/18 10:54:00;;;;;;;30.17;20.43;;;13.60;99.90;;;;;;4952149;29;20181;-69
2022/03/18 10:56:26;;;;;;;31.60;22.50;;;13.50;99.90;;;;;;4940930;29;20233;-69
2022/03/18 10:58:52;;;;;;;31.00;21.50;;;13.60;99.90;;;;;;4950236;29;20246;-69
2022/03/18 11:01:23;;;;;;;29.07;21.70;;;13.90;99.90;;;;;;4953919;28;20650;-69
2022/03/18 11:03:50;;;;;;;20.47;15.20;;;13.80;99.90;;;;;;4953141;28;20185;-70
2022/03/18 11:06:17;;;;;;;22.40;16.27;;;13.80;99.90;;;;;;4949066;28;20202;-69
2022/03/18 11:08:49;;;;;;;23.90;17.17;;;13.70;99.90;;;;;;4948426;29;20203;-69
2022/03/18 11:11:20;;;;;;;26.37;18.13;;;13.70;99.90;;;;;;4932846;29;20190;-69
2022/03/18 11:14:02;;;;;;;28.80;21.00;;;13.60;99.90;;;;;;4948386;29;20190;-66
2022/03/18 11:16:31;;;;;;;21.90;18.17;;;13.40;99.90;;;;;;4952278;28;20693;-66
2022/03/18 11:19:03;;;;;;;27.97;20.87;;;13.70;99.90;;;;;;4952724;28;20801;-68
2022/03/18 11:21:39;;;;;;;28.10;20.37;;;14.00;99.90;;;;;;4951447;29;20224;-68
2022/03/18 11:24:07;;;;;;;29.67;20.60;;;13.90;99.90;;;;;;4951479;29;20213;-69
2022/03/18 11:26:36;;;;;;;28.87;20.80;;;14.20;99.90;;;;;;4950142;29;20201;-69
2022/03/18 11:29:14;;;;;;;24.47;18.17;;;14.20;99.90;;;;;;4952466;28;20562;-68
2022/03/18 11:31:40;;;;;;;28.37;21.70;;;13.90;99.90;;;;;;4952917;28;20232;-68
2022/03/18 11:34:09;;;;;;;28.50;19.73;;;13.90;99.90;;;;;;4952915;28;20197;-68
2022/03/18 11:36:37;;;;;;;28.57;21.90;;;14.10;99.90;;;;;;4934723;29;20216;-68
2022/03/18 11:39:09;;;;;;;26.17;19.33;;;14.20;99.90;;;;;;4933367;29;20278;-67
2022/03/18 11:41:55;;;;;;;28.73;21.07;;;14.30;99.90;;;;;;4933483;29;20236;-73
2022/03/18 11:44:38;;;;;;;21.73;16.10;;;13.80;99.90;;;;;;4933583;29;20627;-68
2022/03/18 11:47:31;;;;;;;33.63;23.80;;;13.50;99.90;;;;;;4937188;28;20209;-68
2022/03/18 11:50:02;;;;;;;29.77;21.80;;;13.10;99.90;;;;;;4952318;29;20195;-68
2022/03/18 11:52:28;;;;;;;33.27;23.20;;;13.10;99.90;;;;;;4952391;29;20261;-68
2022/03/18 11:54:58;;;;;;;30.33;21.83;;;13.10;99.90;;;;;;4948804;28;20588;-68
2022/03/18 11:57:33;;;;;;;30.97;21.17;;;13.40;99.90;;;;;;4951601;28;20288;-68
2022/03/18 12:00:00;;;;;;;33.43;23.33;;;13.70;99.90;;;;;;4951052;29;20219;-68
2022/03/18 12:02:34;;;;;;;28.83;19.87;;;13.90;99.90;;;;;;4939741;28;20209;-68
2022/03/18 12:05:00;;;;;;;28.33;19.90;;;13.90;99.90;;;;;;4946396;28;20183;-69
2022/03/18 12:07:51;;;;;;;30.23;22.40;;;14.00;99.90;;;;;;4931538;29;20724;-69
2022/03/18 12:10:39;;;;;;;26.47;19.47;;;13.80;99.90;;;;;;4932520;29;20194;-69
2022/03/18 12:13:05;;;;;;;26.20;20.87;;;14.60;99.90;;;;;;4931739;29;20717;-72
2022/03/18 12:15:37;;;;;;;30.87;20.30;;;15.10;99.90;;;;;;4940440;28;20185;-72
2022/03/18 12:18:04;;;;;;;32.23;24.33;;;15.20;99.90;;;;;;4953846;29;20206;-73
2022/03/18 12:20:31;;;;;;;23.33;18.30;;;15.20;99.90;;;;;;4954002;29;20265;-72
2022/03/18 12:23:01;;;;;;;24.97;20.10;;;15.60;99.90;;;;;;4954957;29;20181;-72
2022/03/18 12:25:27;;;;;;;26.83;21.10;;;15.60;99.90;;;;;;4947072;28;20209;-73
2022/03/18 12:27:55;;;;;;;24.77;19.73;;;15.80;99.90;;;;;;4935476;29;20646;-72
2022/03/18 12:30:24;;;;;;;25.47;17.47;;;16.10;99.90;;;;;;4936014;29;20191;-73
2022/03/18 12:32:58;;;;;;;25.87;19.57;;;16.40;99.10;;;;;;4936931;29;20182;-73
2022/03/18 12:35:31;;;;;;;29.40;20.70;;;16.10;98.30;;;;;;4945172;29;20185;-72
2022/03/18 12:38:04;;;;;;;22.00;16.67;;;16.10;99.40;;;;;;4955657;28;20216;-75
2022/03/18 12:40:30;;;;;;;23.50;16.73;;;16.70;97.50;;;;;;4953524;29;20193;-74
2022/03/18 12:42:58;;;;;;;25.33;20.30;;;16.30;96.00;;;;;;4955162;28;20715;-74
2022/03/18 12:45:29;;;;;;;25.17;17.90;;;16.20;97.00;;;;;;4954599;28;20654;-75
2022/03/18 12:48:10;;;;;;;26.03;18.27;;;16.50;96.80;;;;;;4953255;28;20241;-75
2022/03/18 12:50:42;;;;;;;25.43;19.87;;;16.60;95.20;;;;;;4955549;28;20193;-75
2022/03/18 12:53:22;;;;;;;28.83;19.80;;;17.00;95.90;;;;;;4953631;29;20178;-75
2022/03/18 12:55:50;;;;;;;18.27;14.97;;;18.20;94.60;;;;;;4955161;28;20268;-74
2022/03/18 12:58:20;;;;;;;25.07;19.00;;;18.50;91.90;;;;;;4954693;28;20245;-75
2022/03/18 13:00:53;;;;;;;15.83;13.00;;;18.80;91.00;;;;;;4955220;28;20186;-75
2022/03/18 13:03:26;;;;;;;23.73;16.30;;;18.50;87.30;;;;;;4954348;28;20180;-75
2022/03/18 13:05:53;;;;;;;26.47;17.90;;;17.40;90.20;;;;;;4954106;29;20221;-75
2022/03/18 13:08:20;;;;;;;27.30;19.03;;;17.20;91.90;;;;;;4954501;28;20181;-66
2022/03/18 13:10:56;;;;;;;25.10;18.43;;;17.00;91.60;;;;;;4955254;28;20204;-67
2022/03/18 13:13:23;;;;;;;25.17;17.70;;;17.80;91.60;;;;;;4950139;28;20187;-67
2022/03/18 13:15:59;;;;;;;28.27;18.17;;;17.90;90.80;;;;;;4936566;29;20213;-70
2022/03/18 13:18:26;;;;;;;21.70;17.07;;;18.10;89.30;;;;;;4943339;28;20296;-72
2022/03/18 13:20:57;;;;;;;23.53;18.03;;;17.60;90.10;;;;;;4938340;28;20210;-71
2022/03/18 13:23:23;;;;;;;23.03;19.47;;;16.90;91.40;;;;;;4933954;29;20197;-72
2022/03/18 13:25:49;;;;;;;23.57;18.10;;;16.70;91.80;;;;;;4935109;29;20269;-72
2022/03/18 13:28:16;;;;;;;15.80;12.13;;;16.70;91.70;;;;;;4936337;29;20196;-70
2022/03/18 13:33:47;;;;;;;21.97;17.23;;;16.60;91.60;;;;;;4935652;29;20182;-69
2022/03/18 13:36:32;;;;;;;22.20;16.33;;;16.10;90.50;;;;;;4951305;29;20215;-70
2022/03/18 13:39:03;;;;;;;22.00;15.20;;;16.50;90.20;;;;;;4948358;29;20209;-70
2022/03/18 13:41:51;;;;;;;17.30;13.63;;;16.50;90.50;;;;;;4954734;28;20209;-69
2022/03/18 13:44:17;;;;;;;24.20;17.60;;;16.40;90.10;;;;;;4954764;29;20646;-70
2022/03/18 13:47:05;;;;;;;23.53;16.57;;;16.80;90.50;;;;;;4954772;28;20579;-69
2022/03/18 13:49:32;;;;;;;21.53;16.30;;;16.60;89.80;;;;;;4954388;28;20194;-69
2022/03/18 13:52:09;;;;;;;24.43;18.90;;;16.30;90.40;;;;;;4954262;28;20196;-70
2022/03/18 13:54:43;;;;;;;27.77;16.97;;;16.30;91.50;;;;;;4953427;29;20245;-69
2022/03/18 13:57:09;;;;;;;25.37;18.03;;;16.40;90.00;;;;;;4953030;29;20244;-70
2022/03/18 13:59:36;;;;;;;22.67;17.07;;;16.20;90.20;;;;;;4935765;28;20222;-69
2022/03/18 14:02:02;;;;;;;22.40;17.00;;;16.30;90.30;;;;;;4934069;29;20193;-70
2022/03/18 14:04:41;;;;;;;24.60;17.53;;;16.20;90.20;;;;;;4934441;29;20182;-69
2022/03/18 14:07:09;;;;;;;17.87;13.97;;;16.10;90.70;;;;;;4934794;29;20202;-69
2022/03/18 14:09:35;;;;;;;21.57;16.67;;;15.80;90.80;;;;;;4952590;29;20217;-69
2022/03/18 14:12:13;;;;;;;22.00;16.67;;;15.40;91.30;;;;;;4954336;28;20228;-69
2022/03/18 14:14:41;;;;;;;19.87;16.20;;;15.20;91.20;;;;;;4954192;28;20653;-70
2022/03/18 14:17:14;;;;;;;21.07;17.10;;;15.30;92.10;;;;;;4953622;28;20707;-69
2022/03/18 14:19:45;;;;;;;22.03;17.07;;;15.10;92.20;;;;;;4934102;29;20642;-70
2022/03/18 14:22:26;;;;;;;25.17;18.00;;;15.00;93.00;;;;;;4933558;29;20272;-69
2022/03/18 14:24:52;;;;;;;21.13;16.27;;;15.00;93.20;;;;;;4933860;29;20214;-70
2022/03/18 14:27:18;;;;;;;21.77;17.63;;;14.70;93.60;;;;;;4934702;29;20198;-69
2022/03/18 14:29:44;;;;;;;23.60;18.37;;;14.60;94.30;;;;;;4953438;29;20181;-69
2022/03/18 14:32:10;;;;;;;23.77;17.17;;;14.70;94.30;;;;;;4953970;29;20224;-70
2022/03/18 14:34:36;;;;;;;23.80;17.00;;;14.90;94.60;;;;;;4953918;29;20276;-70
2022/03/18 14:37:01;;;;;;;22.63;18.23;;;15.10;94.40;;;;;;4953908;29;20208;-69
2022/03/18 14:39:27;;;;;;;23.33;18.00;;;14.80;94.80;;;;;;4936366;29;20269;-68
2022/03/18 14:41:53;;;;;;;19.77;15.40;;;14.70;95.40;;;;;;4935402;29;20655;-69
2022/03/18 14:44:18;;;;;;;18.33;14.23;;;14.40;95.60;;;;;;4945325;29;20663;-70
2022/03/18 14:46:44;;;;;;;23.27;19.23;;;14.20;95.90;;;;;;4934238;29;20300;-69
2022/03/18 14:49:10;;;;;;;24.83;18.97;;;14.10;96.40;;;;;;4946653;29;20192;-70
2022/03/18 14:51:36;;;;;;;26.20;17.53;;;14.30;96.60;;;;;;4952075;29;20241;-69
2022/03/18 14:54:02;;;;;;;23.53;18.77;;;14.40;96.80;;;;;;4953423;29;20569;-70
2022/03/18 14:56:27;;;;;;;24.37;19.93;;;14.30;96.60;;;;;;4936740;28;20202;-69
2022/03/18 14:58:54;;;;;;;25.30;19.20;;;14.60;96.90;;;;;;4933847;29;20238;-70
2022/03/18 15:01:20;;;;;;;21.03;15.23;;;14.70;96.40;;;;;;4934164;29;20204;-69
2022/03/18 15:03:46;;;;;;;21.83;17.07;;;14.50;96.20;;;;;;4937707;29;20185;-69
2022/03/18 15:06:12;;;;;;;24.30;18.47;;;14.10;96.70;;;;;;4952237;29;20332;-69
2022/03/18 15:08:38;;;;;;;27.37;18.40;;;13.80;97.50;;;;;;4951775;29;20717;-69
2022/03/18 15:11:04;;;;;;;23.37;16.97;;;13.70;97.80;;;;;;4953817;29;20197;-70
2022/03/18 15:13:30;;;;;;;31.13;20.37;;;13.70;98.00;;;;;;4951606;29;20189;-69
2022/03/18 15:15:56;;;;;;;22.97;18.70;;;13.70;98.30;;;;;;4934040;29;20230;-69
2022/03/18 15:18:22;;;;;;;31.63;21.70;;;13.60;98.50;;;;;;4933409;29;20224;-69
2022/03/18 15:20:51;;;;;;;25.07;18.37;;;13.40;99.00;;;;;;4934113;29;20190;-69
2022/03/18 15:23:17;;;;;;;21.93;17.37;;;13.30;98.50;;;;;;4933954;29;20178;-69
2022/03/18 15:25:43;;;;;;;25.07;19.73;;;13.20;99.10;;;;;;4953079;29;20529;-70
2022/03/18 15:28:09;;;;;;;26.13;20.20;;;13.20;99.80;;;;;;4952976;28;20203;-70
2022/03/18 15:30:38;;;;;;;27.07;17.97;;;13.30;99.40;;;;;;4951886;28;20182;-69
2022/03/18 15:33:04;;;;;;;26.40;19.73;;;13.00;99.60;;;;;;4952575;29;20221;-69
2022/03/18 15:35:30;;;;;;;21.47;15.93;;;13.00;99.90;;;;;;4935559;28;20642;-65
2022/03/18 15:37:56;;;;;;;27.33;19.00;;;12.90;99.90;;;;;;4933088;29;20195;-69
2022/03/18 15:40:22;;;;;;;28.10;19.97;;;13.00;99.90;;;;;;4932458;29;20296;-69
2022/03/18 15:42:48;;;;;;;26.87;19.90;;;13.10;99.90;;;;;;4934854;29;20299;-69
2022/03/18 15:45:15;;;;;;;18.80;13.20;;;13.10;99.90;;;;;;4948510;29;20204;-70
2022/03/18 15:47:42;;;;;;;28.70;20.27;;;13.00;99.50;;;;;;4952627;29;20608;-69
2022/03/18 15:50:20;;;;;;;23.47;18.40;;;12.90;99.90;;;;;;4953386;28;20239;-70
2022/03/18 15:52:47;;;;;;;26.37;19.27;;;12.80;99.90;;;;;;4957177;29;20196;-69
2022/03/18 15:55:15;;;;;;;27.87;19.73;;;12.80;99.90;;;;;;4955989;29;20212;-69
2022/03/18 15:57:41;;;;;;;22.47;17.47;;;12.80;99.90;;;;;;4955297;29;20650;-70
2022/03/18 16:00:07;;;;;;;25.83;20.33;;;12.80;99.90;;;;;;4956729;28;20307;-69
2022/03/18 16:02:34;;;;;;;24.50;18.53;;;12.80;99.90;;;;;;4955578;29;20213;-68
2022/03/18 16:05:01;;;;;;;27.27;19.23;;;12.80;99.90;;;;;;4942782;29;20563;-69
2022/03/18 16:07:27;;;;;;;31.67;20.90;;;12.80;99.90;;;;;;4936209;29;20214;-69
2022/03/18 16:09:53;;;;;;;32.30;22.00;;;12.80;99.90;;;;;;4936396;29;20190;-71
2022/03/18 16:12:21;;;;;;;27.57;21.00;;;12.80;99.90;;;;;;4937468;29;20684;-69
2022/03/18 16:14:48;;;;;;;21.20;15.67;;;12.70;99.90;;;;;;4947739;29;20186;-69
2022/03/18 16:17:15;;;;;;;25.63;19.83;;;12.60;99.90;;;;;;4985159;23;20309;-69
2022/03/18 16:19:42;;;;;;;26.70;20.60;;;12.40;99.90;;;;;;4974545;28;20216;-69
2022/03/18 16:22:29;;;;;;;26.20;20.30;;;12.40;99.90;;;;;;4975794;28;20263;-70
2022/03/18 16:24:54;;;;;;;23.70;19.43;;;12.40;99.90;;;;;;4975996;28;20268;-69
2022/03/18 16:27:20;;;;;;;27.90;20.57;;;12.40;99.90;;;;;;4963548;28;20751;-70
2022/03/18 16:29:48;;;;;;;26.50;21.20;;;12.40;99.90;;;;;;4956370;29;20673;-70
2022/03/18 16:32:13;;;;;;;28.93;20.00;;;12.40;99.90;;;;;;4956367;28;20537;-70
2022/03/18 16:34:41;;;;;;;18.33;14.97;;;12.40;99.90;;;;;;4945724;29;20254;-71
2022/03/18 16:37:07;;;;;;;29.97;21.77;;;12.30;99.90;;;;;;4936667;29;20216;-70
2022/03/18 16:39:33;;;;;;;28.57;21.07;;;12.10;99.90;;;;;;4937204;29;20221;-70
2022/03/18 16:41:59;;;;;;;25.20;16.40;;;12.10;99.90;;;;;;4937600;29;20186;-70
2022/03/18 16:44:24;;;;;;;25.60;18.90;;;11.90;99.90;;;;;;4944502;29;20188;-70
2022/03/18 16:49:34;;;;;;;26.20;19.93;;;11.70;99.90;;;;;;4956340;29;20190;-69
2022/03/18 16:52:00;;;;;;;29.93;22.10;;;11.70;99.90;;;;;;4956373;29;20281;-70
2022/03/18 16:54:27;;;;;;;33.20;23.10;;;11.60;99.90;;;;;;4948862;29;20659;-70
2022/03/18 16:56:54;;;;;;;32.57;22.03;;;11.50;99.90;;;;;;4936566;29;20225;-70